createdAt,value
2023-07-24T00:01:06.674Z,19.65
2023-07-24T00:05:09.097Z,19.37
2023-07-24T00:09:10.619Z,19.18
2023-07-24T00:13:12.152Z,19.02
2023-07-24T00:17:15.079Z,18.87
2023-07-24T00:21:16.657Z,18.93
2023-07-24T00:25:18.171Z,18.90
2023-07-24T00:29:19.672Z,18.97
2023-07-24T00:33:22.630Z,19.10
2023-07-24T00:37:24.795Z,19.00
2023-07-24T00:41:26.323Z,18.98
2023-07-24T00:45:27.915Z,18.92
2023-07-24T00:49:30.796Z,18.86
2023-07-24T00:53:32.441Z,18.92
2023-07-24T00:57:34.514Z,19.11
2023-07-24T01:01:36.598Z,18.95
2023-07-24T01:05:39.468Z,18.79
2023-07-24T01:09:40.969Z,18.62
2023-07-24T01:13:49.296Z,18.52
2023-07-24T01:17:58.031Z,18.40
2023-07-24T01:22:09.387Z,18.50
2023-07-24T01:26:13.045Z,18.74
2023-07-24T01:30:19.925Z,19.09
2023-07-24T01:34:21.564Z,19.13
2023-07-24T01:38:25.256Z,19.27
2023-07-24T01:42:28.916Z,19.36
2023-07-24T01:46:30.665Z,19.32
2023-07-24T01:50:32.369Z,19.48
2023-07-24T01:54:33.912Z,19.49
2023-07-24T01:58:36.786Z,19.62
2023-07-24T02:02:38.370Z,19.65
2023-07-24T02:06:39.892Z,19.47
2023-07-24T02:10:41.419Z,19.36
2023-07-24T02:14:44.310Z,19.35
2023-07-24T02:18:45.872Z,19.40
2023-07-24T02:22:47.401Z,19.32
2023-07-24T02:26:48.912Z,19.33
2023-07-24T02:30:51.740Z,19.37
2023-07-24T02:34:53.935Z,19.39
2023-07-24T02:38:55.519Z,19.38
2023-07-24T02:42:57.089Z,19.37
2023-07-24T02:46:59.933Z,19.43
2023-07-24T02:51:01.454Z,19.40
2023-07-24T02:55:03.151Z,19.40
2023-07-24T02:59:04.690Z,19.41
2023-07-24T03:03:07.714Z,19.42
2023-07-24T03:07:09.318Z,19.51
2023-07-24T03:11:10.815Z,19.49
2023-07-24T03:15:12.340Z,19.57
2023-07-24T03:19:15.190Z,19.60
2023-07-24T03:23:16.799Z,19.61
2023-07-24T03:27:18.338Z,19.59
2023-07-24T03:31:19.950Z,19.58
2023-07-24T03:35:22.915Z,19.60
2023-07-24T03:39:24.579Z,19.60
2023-07-24T03:43:26.101Z,19.51
2023-07-24T03:47:27.762Z,19.42
2023-07-24T03:51:30.706Z,19.51
2023-07-24T03:55:32.253Z,19.42
2023-07-24T03:59:33.801Z,19.37
2023-07-24T04:03:35.419Z,19.51
2023-07-24T04:07:38.317Z,19.52
2023-07-24T04:11:39.839Z,19.49
2023-07-24T04:15:41.351Z,19.44
2023-07-24T04:19:42.869Z,19.53
2023-07-24T04:23:46.092Z,19.84
2023-07-24T04:27:47.608Z,20.03
2023-07-24T04:31:49.166Z,20.10
2023-07-24T04:35:50.693Z,20.09
2023-07-24T04:39:53.567Z,20.00
2023-07-24T04:43:55.062Z,19.94
2023-07-24T04:47:56.621Z,20.03
2023-07-24T04:51:58.145Z,20.18
2023-07-24T04:56:01.011Z,20.41
2023-07-24T05:00:02.637Z,20.62
2023-07-24T05:04:04.645Z,20.71
2023-07-24T05:08:06.304Z,20.81
2023-07-24T05:12:09.440Z,20.94
2023-07-24T05:16:11.066Z,20.94
2023-07-24T05:20:12.822Z,21.13
2023-07-24T05:24:14.393Z,21.28
2023-07-24T05:28:17.303Z,21.34
2023-07-24T05:32:18.878Z,21.36
2023-07-24T05:36:20.419Z,21.42
2023-07-24T05:40:21.963Z,21.40
2023-07-24T05:44:24.819Z,21.36
2023-07-24T05:48:26.445Z,21.44
2023-07-24T05:52:27.977Z,21.58
2023-07-24T05:56:29.705Z,21.69
2023-07-24T06:00:33.169Z,21.93
2023-07-24T06:04:34.923Z,21.97
2023-07-24T06:08:36.511Z,22.12
2023-07-24T06:12:38.072Z,22.16
2023-07-24T06:16:40.964Z,22.03
2023-07-24T06:20:42.560Z,21.95
2023-07-24T06:24:44.108Z,21.95
2023-07-24T06:28:45.657Z,22.01
2023-07-24T06:32:48.536Z,22.19
2023-07-24T06:36:50.108Z,22.41
2023-07-24T06:40:51.689Z,22.61
2023-07-24T06:44:53.205Z,22.78
2023-07-24T06:48:56.202Z,23.13
2023-07-24T06:52:57.748Z,23.63
2023-07-24T06:56:59.293Z,24.02
2023-07-24T07:01:00.837Z,24.50
2023-07-24T07:05:03.881Z,24.81
2023-07-24T07:09:05.396Z,24.90
2023-07-24T07:13:06.955Z,25.04
2023-07-24T07:17:08.484Z,25.15
2023-07-24T07:21:11.437Z,25.12
2023-07-24T07:25:12.976Z,25.13
2023-07-24T07:29:14.485Z,25.09
2023-07-24T07:33:16.001Z,25.37
2023-07-24T07:37:18.851Z,25.71
2023-07-24T07:41:20.378Z,25.59
2023-07-24T07:45:22.098Z,25.39
2023-07-24T07:49:23.671Z,25.67
2023-07-24T07:53:26.554Z,25.71
2023-07-24T07:57:28.070Z,25.79
2023-07-24T08:01:29.649Z,25.56
2023-07-24T08:05:31.211Z,25.38
2023-07-24T08:09:34.165Z,25.38
2023-07-24T08:13:36.032Z,25.68
2023-07-24T08:17:37.683Z,25.75
2023-07-24T08:21:39.342Z,26.19
2023-07-24T08:25:51.995Z,26.39
2023-07-24T08:29:53.677Z,26.35
2023-07-24T08:33:55.208Z,26.90
2023-07-24T08:37:56.750Z,26.97
2023-07-24T08:41:59.705Z,26.97
2023-07-24T08:46:02.385Z,27.42
2023-07-24T08:50:04.368Z,28.23
2023-07-24T08:54:06.608Z,28.66
2023-07-24T08:58:09.497Z,28.79
2023-07-24T09:02:11.268Z,28.57
2023-07-24T09:06:12.895Z,28.39
2023-07-24T09:10:14.914Z,27.64
2023-07-24T09:14:24.685Z,27.89
2023-07-24T09:18:26.592Z,27.61
2023-07-24T09:22:28.161Z,27.33
2023-07-24T09:26:29.954Z,27.36
2023-07-24T09:30:33.047Z,27.57
2023-07-24T09:34:34.613Z,27.56
2023-07-24T09:38:36.385Z,27.67
2023-07-24T09:42:52.983Z,27.50
2023-07-24T09:47:26.553Z,27.49
2023-07-24T09:51:24.774Z,27.65
2023-07-24T09:55:35.439Z,27.66
2023-07-24T09:59:37.139Z,27.77
2023-07-24T10:03:43.757Z,27.86
2023-07-24T10:07:46.772Z,28.15
2023-07-24T10:11:48.379Z,28.04
2023-07-24T10:15:50.347Z,28.51
2023-07-24T10:20:04.245Z,28.30
2023-07-24T10:24:06.170Z,28.16
2023-07-24T10:28:09.118Z,27.90
2023-07-24T10:32:20.267Z,27.25
2023-07-24T10:36:23.503Z,27.23
2023-07-24T10:40:25.180Z,27.15
2023-07-24T10:44:31.917Z,26.84
2023-07-24T10:48:33.430Z,26.71
2023-07-24T10:52:36.291Z,25.96
2023-07-24T10:56:38.017Z,25.78
2023-07-24T11:00:40.049Z,24.69
2023-07-24T11:04:41.711Z,24.23
2023-07-24T11:08:52.065Z,24.61
2023-07-24T11:12:53.609Z,25.39
2023-07-24T11:16:55.141Z,26.07
2023-07-24T11:20:57.370Z,26.92
2023-07-24T11:25:00.769Z,27.43
2023-07-24T11:29:02.361Z,27.88
2023-07-24T11:33:05.954Z,28.35
2023-07-24T11:37:07.838Z,28.67
2023-07-24T11:41:10.857Z,28.95
2023-07-24T11:45:12.724Z,29.00
2023-07-24T11:49:15.438Z,28.98
2023-07-24T11:53:21.735Z,28.19
2023-07-24T11:57:24.617Z,27.99
2023-07-24T12:01:26.170Z,27.51
2023-07-24T12:05:27.845Z,26.99
2023-07-24T12:09:30.752Z,27.09
2023-07-24T12:13:33.670Z,26.99
2023-07-24T12:17:35.282Z,26.79
2023-07-24T12:21:37.063Z,26.63
2023-07-24T12:25:38.673Z,26.05
2023-07-24T12:29:41.597Z,25.23
2023-07-24T12:33:43.181Z,24.64
2023-07-24T12:37:44.963Z,24.13
2023-07-24T12:41:46.567Z,23.68
2023-07-24T12:45:49.492Z,23.10
2023-07-24T12:49:51.095Z,22.86
2023-07-24T12:54:07.912Z,22.01
2023-07-24T12:58:14.206Z,20.96
2023-07-24T13:02:17.134Z,20.45
2023-07-24T13:06:18.727Z,20.35
2023-07-24T13:10:20.568Z,20.63
2023-07-24T13:14:22.193Z,21.15
2023-07-24T13:18:28.992Z,21.93
2023-07-24T13:22:31.139Z,21.94
2023-07-24T13:26:33.112Z,22.04
2023-07-24T13:30:34.858Z,22.21
2023-07-24T13:34:38.419Z,22.48
2023-07-24T13:38:40.752Z,22.88
2023-07-24T13:42:42.264Z,22.94
2023-07-24T13:46:43.885Z,22.88
2023-07-24T13:50:46.974Z,23.39
2023-07-24T13:54:48.565Z,26.90
2023-07-24T13:58:50.200Z,27.84
2023-07-24T14:02:52.033Z,27.03
2023-07-24T14:06:54.970Z,26.46
2023-07-24T14:10:56.507Z,27.26
2023-07-24T14:14:58.068Z,29.21
2023-07-24T14:18:59.784Z,30.35
2023-07-24T14:23:02.753Z,30.34
2023-07-24T14:27:04.577Z,30.06
2023-07-24T14:31:06.191Z,30.08
2023-07-24T14:35:08.428Z,29.07
2023-07-24T14:39:11.353Z,27.25
2023-07-24T14:43:13.051Z,26.45
2023-07-24T14:47:14.760Z,26.09
2023-07-24T14:51:16.295Z,26.42
2023-07-24T14:55:19.519Z,26.50
2023-07-24T14:59:21.097Z,26.89
2023-07-24T15:03:22.911Z,27.00
2023-07-24T15:07:24.492Z,28.74
2023-07-24T15:11:28.278Z,28.64
2023-07-24T15:15:30.106Z,29.53
2023-07-24T15:19:31.700Z,31.32
2023-07-24T15:23:33.267Z,29.05
2023-07-24T15:27:36.194Z,27.57
2023-07-24T15:31:37.943Z,27.45
2023-07-24T15:35:39.675Z,30.65
2023-07-24T15:39:41.249Z,30.83
2023-07-24T15:43:44.251Z,32.43
2023-07-24T15:47:45.923Z,31.77
2023-07-24T15:51:47.600Z,32.97
2023-07-24T15:55:49.166Z,32.56
2023-07-24T15:59:52.383Z,30.39
2023-07-24T16:03:53.966Z,30.89
2023-07-24T16:07:57.661Z,29.66
2023-07-24T16:11:59.237Z,30.17
2023-07-24T16:16:02.346Z,31.42
2023-07-24T16:20:04.814Z,32.02
2023-07-24T16:24:06.616Z,31.39
2023-07-24T16:28:08.184Z,31.31
2023-07-24T16:32:11.034Z,30.04
2023-07-24T16:36:12.575Z,29.77
2023-07-24T16:40:14.129Z,29.54
2023-07-24T16:44:15.902Z,28.81
2023-07-24T16:48:18.948Z,28.54
2023-07-24T16:52:20.538Z,28.18
2023-07-24T16:56:22.310Z,27.92
2023-07-24T17:00:24.143Z,27.61
2023-07-24T17:04:27.144Z,27.43
2023-07-24T17:08:28.681Z,27.14
2023-07-24T17:12:30.203Z,27.13
2023-07-24T17:16:31.819Z,27.19
2023-07-24T17:20:34.734Z,27.17
2023-07-24T17:24:36.487Z,26.92
2023-07-24T17:28:38.130Z,26.43
2023-07-24T17:32:39.721Z,26.37
2023-07-24T17:36:42.573Z,26.25
2023-07-24T17:40:44.159Z,26.09
2023-07-24T17:44:45.669Z,25.97
2023-07-24T17:48:47.205Z,25.63
2023-07-24T17:52:50.112Z,25.24
2023-07-24T17:56:51.676Z,24.89
2023-07-24T18:00:53.678Z,24.75
2023-07-24T18:04:55.286Z,24.61
2023-07-24T18:08:58.146Z,24.53
2023-07-24T18:12:59.697Z,24.46
2023-07-24T18:17:01.231Z,24.36
2023-07-24T18:21:08.347Z,24.38
2023-07-24T18:25:11.816Z,24.39
2023-07-24T18:29:13.388Z,24.45
2023-07-24T18:33:14.972Z,24.35
2023-07-24T18:37:16.521Z,24.15
2023-07-24T18:41:19.427Z,24.01
2023-07-24T18:45:21.412Z,23.99
2023-07-24T18:49:23.088Z,23.60
2023-07-24T18:53:24.653Z,22.30
2023-07-24T18:57:27.639Z,21.27
2023-07-24T19:01:29.466Z,20.46
2023-07-24T19:05:31.517Z,19.96
2023-07-24T19:09:33.087Z,19.71
2023-07-24T19:13:37.186Z,19.16
2023-07-24T19:17:38.980Z,18.89
2023-07-24T19:21:40.573Z,18.56
2023-07-24T19:25:42.109Z,18.17
2023-07-24T19:29:45.019Z,17.78
2023-07-24T19:33:46.631Z,17.55
2023-07-24T19:37:48.157Z,17.33
2023-07-24T19:41:49.701Z,17.32
2023-07-24T19:45:52.951Z,17.27
2023-07-24T19:49:54.626Z,17.13
2023-07-24T19:53:56.180Z,17.15
2023-07-24T19:57:57.696Z,17.15
2023-07-24T20:02:00.677Z,17.13
2023-07-24T20:06:06.972Z,17.13
2023-07-24T20:10:10.380Z,17.14
2023-07-24T20:14:12.190Z,17.20
2023-07-24T20:18:15.540Z,17.27
2023-07-24T20:22:17.059Z,17.41
2023-07-24T20:26:18.677Z,17.36
2023-07-24T20:30:20.241Z,17.43
2023-07-24T20:34:23.223Z,17.55
2023-07-24T20:38:26.826Z,17.75
2023-07-24T20:42:29.589Z,17.92
2023-07-24T20:46:31.145Z,17.95
2023-07-24T20:50:37.967Z,18.03
2023-07-24T20:54:39.606Z,18.17
2023-07-24T20:58:41.659Z,18.31
2023-07-24T21:02:43.237Z,17.89
2023-07-24T21:06:46.161Z,17.46
2023-07-24T21:10:47.667Z,16.88
2023-07-24T21:14:49.177Z,16.59
2023-07-24T21:18:50.741Z,16.36
2023-07-24T21:22:53.726Z,16.15
2023-07-24T21:26:55.244Z,16.09
2023-07-24T21:30:56.815Z,16.01
2023-07-24T21:34:58.433Z,15.97
2023-07-24T21:39:01.318Z,15.94
2023-07-24T21:43:02.993Z,15.97
2023-07-24T21:47:05.401Z,15.94
2023-07-24T21:51:07.033Z,15.90
2023-07-24T21:55:10.314Z,15.86
2023-07-24T21:59:11.842Z,15.80
2023-07-24T22:03:13.401Z,15.76
2023-07-24T22:07:14.937Z,15.72
2023-07-24T22:11:17.839Z,15.66
2023-07-24T22:15:19.401Z,15.63
2023-07-24T22:19:21.055Z,15.56
2023-07-24T22:23:22.586Z,15.46
2023-07-24T22:27:26.582Z,15.45
2023-07-24T22:31:28.143Z,15.42
2023-07-24T22:35:29.675Z,15.34
2023-07-24T22:39:31.240Z,15.23
2023-07-24T22:43:34.099Z,15.18
2023-07-24T22:47:35.666Z,15.13
2023-07-24T22:51:37.223Z,15.12
2023-07-24T22:55:38.744Z,15.07
2023-07-24T22:59:41.634Z,15.07
2023-07-24T23:03:43.272Z,15.13
2023-07-24T23:07:44.844Z,15.22
2023-07-24T23:11:46.449Z,15.40
2023-07-24T23:15:49.317Z,15.51
2023-07-24T23:19:50.877Z,15.58
2023-07-24T23:23:52.507Z,15.69
2023-07-24T23:27:54.044Z,15.74
2023-07-24T23:31:56.912Z,15.72
2023-07-24T23:35:58.531Z,15.76
2023-07-24T23:40:00.075Z,15.66
2023-07-24T23:44:01.735Z,15.59
2023-07-24T23:48:05.436Z,15.62
2023-07-24T23:52:08.202Z,15.54
2023-07-24T23:56:09.726Z,15.66
